Time;durP1;ratioP1;P1;durP2;ratioP2;P2;SDS_P1;SDS_P2;PMS_P1;PMS_P2;Temp;Humidity;BMP_temperature;BMP_pressure;BME280_temperature;BME280_humidity;BME280_pressure;Samples;Min_cycle;Max_cycle;Signal;HPM_P1;HPM_P2
2022/08/26 15:09:54;;;;;;;8.53;7.33;;;29.80;70.80;;;;;;6185637;22;21128;-67
2022/08/26 15:12:21;;;;;;;8.40;6.80;;;29.60;73.00;;;;;;6162333;23;20465;-68
2022/08/26 15:14:48;;;;;;;9.70;7.07;;;29.60;73.10;;;;;;6153506;23;20463;-68
2022/08/26 15:17:15;;;;;;;8.47;7.20;;;29.60;73.40;;;;;;6157334;23;20452;-67
2022/08/26 15:19:42;;;;;;;7.33;6.10;;;29.60;73.70;;;;;;6140613;23;20931;-69
2022/08/26 15:22:09;;;;;;;7.73;6.90;;;29.50;74.90;;;;;;6145156;23;20866;-68
2022/08/26 15:24:37;;;;;;;7.00;6.30;;;29.60;74.10;;;;;;6141052;23;20455;-67
2022/08/26 15:27:05;;;;;;;12.20;7.33;;;29.60;73.90;;;;;;6141795;23;20432;-68
2022/08/26 15:29:33;;;;;;;10.40;7.03;;;29.60;74.40;;;;;;6153776;23;20557;-68
2022/08/26 15:32:01;;;;;;;10.20;7.27;;;29.60;74.10;;;;;;6148308;23;20432;-67
2022/08/26 15:34:28;;;;;;;7.70;6.80;;;29.60;74.30;;;;;;6129143;23;20815;-67
2022/08/26 15:36:55;;;;;;;7.27;6.40;;;29.50;74.30;;;;;;6140255;23;20436;-67
2022/08/26 15:39:23;;;;;;;8.40;7.00;;;29.40;74.80;;;;;;6151130;23;20465;-67
2022/08/26 15:41:50;;;;;;;8.73;7.20;;;29.30;75.90;;;;;;6132824;23;20433;-68
2022/08/26 15:44:18;;;;;;;10.37;6.53;;;29.30;76.30;;;;;;6155053;23;20435;-68
2022/08/26 15:46:47;;;;;;;7.43;6.73;;;29.20;76.50;;;;;;6151021;23;20430;-68
2022/08/26 15:49:15;;;;;;;10.50;7.30;;;29.20;76.50;;;;;;6144911;23;20472;-68
2022/08/26 15:51:43;;;;;;;10.53;7.47;;;29.10;76.00;;;;;;6141895;23;20467;-68
2022/08/26 15:54:10;;;;;;;8.60;6.57;;;29.10;76.80;;;;;;6126931;23;21010;-67
2022/08/26 15:56:38;;;;;;;7.27;5.83;;;28.70;78.70;;;;;;6138866;23;20455;-68
2022/08/26 15:59:06;;;;;;;6.53;5.57;;;28.00;80.00;;;;;;6155899;23;20432;-67
2022/08/26 16:01:35;;;;;;;9.20;5.77;;;27.50;81.50;;;;;;6146080;23;20429;-67
2022/08/26 16:04:03;;;;;;;13.83;6.47;;;26.90;85.60;;;;;;6151548;23;20436;-67
2022/08/26 16:06:34;;;;;;;12.10;6.90;;;26.30;89.90;;;;;;6140086;23;20922;-67
2022/08/26 16:09:01;;;;;;;8.20;7.33;;;25.60;92.40;;;;;;6147475;23;20811;-77
2022/08/26 16:11:28;;;;;;;8.87;7.03;;;24.90;95.90;;;;;;6135221;23;20460;-67
2022/08/26 16:13:56;;;;;;;7.60;7.00;;;24.20;99.90;;;;;;6150886;23;20434;-67
2022/08/26 16:16:23;;;;;;;7.20;6.60;;;23.70;99.90;;;;;;6148309;23;20198;-73
2022/08/26 16:18:52;;;;;;;8.13;6.87;;;23.40;99.90;;;;;;6140972;23;20462;-68
2022/08/26 16:21:22;;;;;;;7.10;6.50;;;22.90;99.90;;;;;;6136885;23;20980;-67
2022/08/26 16:23:49;;;;;;;7.68;6.88;;;22.80;99.90;;;;;;6142363;23;20432;-67
2022/08/26 16:26:19;;;;;;;6.45;5.80;;;22.80;99.90;;;;;;6140368;23;20435;-69
2022/08/26 16:28:46;;;;;;;6.17;5.57;;;22.90;99.90;;;;;;6146613;23;20234;-67
2022/08/26 16:31:14;;;;;;;7.20;6.50;;;23.10;99.90;;;;;;6146601;23;20428;-66
2022/08/26 16:33:42;;;;;;;6.22;5.63;;;23.10;99.90;;;;;;6139483;23;20427;-68
2022/08/26 16:36:11;;;;;;;6.27;5.67;;;23.10;99.90;;;;;;6136863;23;20946;-67
2022/08/26 16:38:39;;;;;;;6.63;5.53;;;23.20;99.90;;;;;;6132844;23;20432;-67
2022/08/26 16:41:07;;;;;;;6.63;6.00;;;23.40;99.90;;;;;;6132599;23;20453;-67
2022/08/26 16:43:35;;;;;;;8.13;6.00;;;23.20;99.90;;;;;;6126758;23;20466;-67
2022/08/26 16:46:05;;;;;;;7.50;6.80;;;23.10;99.90;;;;;;6135870;23;20476;-67
2022/08/26 16:48:33;;;;;;;6.83;6.00;;;22.90;99.90;;;;;;6150265;23;20498;-67
2022/08/26 16:50:59;;;;;;;6.20;5.70;;;22.60;99.90;;;;;;6144770;23;20429;-68
2022/08/26 16:53:28;;;;;;;7.07;6.43;;;22.30;99.90;;;;;;6128988;23;20923;-68
2022/08/26 16:55:55;;;;;;;6.20;5.60;;;22.00;99.90;;;;;;6144832;23;20465;-68
2022/08/26 16:58:22;;;;;;;6.50;5.03;;;21.80;99.90;;;;;;6143576;23;20428;-68
2022/08/26 17:00:49;;;;;;;4.70;4.30;;;21.50;99.90;;;;;;6130719;23;20514;-68
2022/08/26 17:03:17;;;;;;;4.90;4.40;;;21.00;99.90;;;;;;6129936;23;20445;-69
2022/08/26 17:05:44;;;;;;;4.03;3.73;;;20.60;99.90;;;;;;6123252;23;20454;-69
2022/08/26 17:08:12;;;;;;;4.53;3.03;;;20.30;99.90;;;;;;6126424;23;20445;-68
2022/08/26 17:10:40;;;;;;;3.40;2.50;;;20.20;99.90;;;;;;6126359;23;20450;-68
2022/08/26 17:13:07;;;;;;;2.70;2.50;;;20.10;99.90;;;;;;6130657;23;20470;-70
2022/08/26 17:15:34;;;;;;;4.10;2.20;;;20.10;99.90;;;;;;6127757;23;20457;-70
2022/08/26 17:18:01;;;;;;;2.50;1.97;;;20.10;99.90;;;;;;6140595;23;20520;-70
2022/08/26 17:20:28;;;;;;;4.40;2.33;;;20.20;99.90;;;;;;6129695;23;20433;-69
2022/08/26 17:22:57;;;;;;;2.50;2.30;;;20.50;99.90;;;;;;6123588;23;20428;-66
2022/08/26 17:25:29;;;;;;;2.10;1.90;;;20.60;99.90;;;;;;6127515;23;20433;-66
2022/08/26 17:27:58;;;;;;;1.80;1.70;;;20.70;99.90;;;;;;6129538;23;20464;-68
2022/08/26 17:30:25;;;;;;;2.70;2.50;;;20.80;99.90;;;;;;6140006;23;20220;-69
2022/08/26 17:32:52;;;;;;;3.37;3.17;;;20.90;99.90;;;;;;6127662;23;20439;-71
2022/08/26 17:35:20;;;;;;;2.90;2.70;;;21.10;99.90;;;;;;6128448;23;20551;-71
2022/08/26 17:37:47;;;;;;;2.50;2.30;;;21.20;99.90;;;;;;6122065;23;20435;-73
2022/08/26 17:40:16;;;;;;;3.00;2.70;;;21.40;99.90;;;;;;6129269;23;20440;-71
2022/08/26 17:42:43;;;;;;;2.77;2.40;;;21.30;99.90;;;;;;6120218;23;20434;-71
2022/08/26 17:45:12;;;;;;;2.60;2.40;;;21.30;99.90;;;;;;6139840;23;20457;-71
2022/08/26 17:47:40;;;;;;;3.83;3.53;;;21.40;99.90;;;;;;6127156;23;20511;-71
2022/08/26 17:50:09;;;;;;;4.60;4.20;;;21.40;99.90;;;;;;6128100;23;21020;-71
2022/08/26 17:52:37;;;;;;;6.00;5.50;;;21.30;99.90;;;;;;6142306;23;20440;-72
2022/08/26 17:55:05;;;;;;;7.20;6.37;;;21.30;99.90;;;;;;6122266;23;20459;-70
2022/08/26 17:57:32;;;;;;;7.33;6.73;;;21.20;99.90;;;;;;6131150;23;20826;-70
2022/08/26 17:59:59;;;;;;;6.90;6.30;;;21.20;99.90;;;;;;6126276;23;20455;-70
2022/08/26 18:02:28;;;;;;;6.43;5.73;;;21.10;99.90;;;;;;6129578;23;20441;-70
2022/08/26 18:04:55;;;;;;;5.73;5.23;;;21.00;99.90;;;;;;6136804;23;20466;-70
2022/08/26 18:07:22;;;;;;;5.83;5.43;;;20.70;99.90;;;;;;6129555;23;20494;-69
2022/08/26 18:09:49;;;;;;;6.70;6.20;;;20.80;99.90;;;;;;6123402;23;20466;-69
2022/08/26 18:12:16;;;;;;;7.00;6.30;;;20.70;99.90;;;;;;6129296;23;20646;-69
2022/08/26 18:14:43;;;;;;;7.80;7.20;;;20.70;99.90;;;;;;6132074;23;20456;-69
2022/08/26 18:17:10;;;;;;;17.20;15.40;;;20.60;99.90;;;;;;6121595;23;20430;-69
2022/08/26 18:19:39;;;;;;;7.77;7.17;;;20.50;99.90;;;;;;6136524;23;20513;-69
2022/08/26 18:22:06;;;;;;;7.37;6.57;;;20.50;99.90;;;;;;6133104;23;20443;-69
2022/08/26 18:24:33;;;;;;;8.00;7.40;;;20.50;99.90;;;;;;6130965;23;20455;-69
2022/08/26 18:27:00;;;;;;;7.67;6.90;;;20.50;99.90;;;;;;6128080;23;20436;-69
2022/08/26 18:29:28;;;;;;;7.80;7.10;;;20.50;99.90;;;;;;6127631;23;20502;-69
2022/08/26 18:31:55;;;;;;;7.77;7.00;;;20.50;99.90;;;;;;6122981;23;20441;-69
2022/08/26 18:34:22;;;;;;;7.60;7.00;;;20.50;99.90;;;;;;6127852;23;20456;-73
2022/08/26 18:36:51;;;;;;;7.30;6.70;;;20.50;99.90;;;;;;6137431;23;20521;-74
2022/08/26 18:39:18;;;;;;;8.17;7.37;;;20.50;99.90;;;;;;6123397;23;20524;-75
2022/08/26 18:41:48;;;;;;;7.90;7.20;;;20.50;99.90;;;;;;6133269;23;20441;-74
2022/08/26 18:44:18;;;;;;;7.07;6.33;;;20.50;99.90;;;;;;6123777;23;20490;-75
2022/08/26 18:46:46;;;;;;;8.97;8.17;;;20.50;99.90;;;;;;6126496;23;20460;-74
2022/08/26 18:49:13;;;;;;;8.60;7.80;;;20.50;99.90;;;;;;6125794;23;20547;-74
2022/08/26 18:51:42;;;;;;;7.90;7.20;;;20.60;99.90;;;;;;6138205;23;20951;-74
2022/08/26 18:54:11;;;;;;;7.77;7.17;;;20.50;99.90;;;;;;6126115;23;20468;-75
2022/08/26 18:56:39;;;;;;;8.07;7.37;;;20.50;99.90;;;;;;6131004;23;20977;-75
2022/08/26 18:59:07;;;;;;;8.27;7.57;;;20.50;99.90;;;;;;6129894;23;20456;-75
2022/08/26 19:01:36;;;;;;;7.77;7.00;;;20.50;99.90;;;;;;6136500;23;20434;-75
2022/08/26 19:04:05;;;;;;;8.13;7.50;;;20.40;99.90;;;;;;6124801;23;20994;-74
2022/08/26 19:06:34;;;;;;;9.33;8.63;;;20.40;99.90;;;;;;6128736;23;20443;-74
2022/08/26 19:09:01;;;;;;;9.53;8.73;;;20.30;99.90;;;;;;6130859;23;20476;-70
2022/08/26 19:11:30;;;;;;;10.53;9.63;;;20.20;99.90;;;;;;6132205;23;20452;-70
2022/08/26 19:13:57;;;;;;;9.80;8.90;;;20.30;99.90;;;;;;6127269;23;21003;-70
2022/08/26 19:16:26;;;;;;;9.30;8.50;;;20.00;99.90;;;;;;6132548;23;20433;-70
2022/08/26 19:18:54;;;;;;;8.07;7.37;;;20.00;99.90;;;;;;6133282;23;20531;-70
2022/08/26 19:21:23;;;;;;;8.83;8.13;;;20.00;99.90;;;;;;6133669;23;20841;-70
2022/08/26 19:23:50;;;;;;;8.60;7.83;;;20.00;99.90;;;;;;6121299;23;20504;-70
2022/08/26 19:26:19;;;;;;;8.53;7.73;;;20.10;99.90;;;;;;6129405;23;20773;-70
2022/08/26 19:28:48;;;;;;;9.53;8.70;;;20.10;99.90;;;;;;6139890;23;20833;-70
2022/08/26 19:31:15;;;;;;;9.83;9.03;;;20.20;99.90;;;;;;6130131;23;20463;-70
2022/08/26 19:33:44;;;;;;;8.40;7.63;;;20.20;99.90;;;;;;6124607;23;20540;-70
2022/08/26 19:36:16;;;;;;;9.00;8.20;;;20.30;99.90;;;;;;6127643;23;20437;-70
2022/08/26 19:38:44;;;;;;;9.40;8.50;;;20.30;99.90;;;;;;6123113;23;20441;-70
2022/08/26 19:41:12;;;;;;;8.80;8.00;;;20.30;99.90;;;;;;6138423;23;20480;-70
2022/08/26 19:43:40;;;;;;;8.97;8.10;;;20.30;99.90;;;;;;6131305;23;20998;-70
2022/08/26 19:46:15;;;;;;;8.87;8.10;;;20.20;99.90;;;;;;6131054;23;20519;-75
2022/08/26 19:48:43;;;;;;;9.43;8.70;;;20.20;99.90;;;;;;6127109;23;20442;-75
2022/08/26 19:51:16;;;;;;;9.13;8.33;;;20.20;99.90;;;;;;6131144;23;20482;-75
2022/08/26 19:53:45;;;;;;;9.60;8.90;;;20.20;99.90;;;;;;6128787;23;20450;-75
2022/08/26 19:56:13;;;;;;;10.70;8.50;;;20.20;99.90;;;;;;6129816;23;20425;-75
2022/08/26 19:58:40;;;;;;;9.77;8.87;;;20.20;99.90;;;;;;6142539;23;20460;-74
2022/08/26 20:01:09;;;;;;;9.50;8.73;;;20.20;99.90;;;;;;6127407;23;20956;-75
2022/08/26 20:03:37;;;;;;;10.57;9.70;;;20.00;99.90;;;;;;6134837;23;20457;-74
2022/08/26 20:06:06;;;;;;;10.50;9.60;;;19.90;99.90;;;;;;6130253;23;20436;-74
2022/08/26 20:08:34;;;;;;;9.50;8.70;;;19.90;99.90;;;;;;6126772;23;20901;-75
2022/08/26 20:11:03;;;;;;;9.70;8.90;;;19.80;99.90;;;;;;6139667;23;20469;-75
2022/08/26 20:13:31;;;;;;;10.17;9.27;;;19.70;99.90;;;;;;6135327;23;21058;-69
2022/08/26 20:15:58;;;;;;;10.67;9.80;;;19.70;99.90;;;;;;6142455;23;20439;-69
2022/08/26 20:21:27;;;;;;;9.60;8.80;;;19.60;99.90;;;;;;6146537;23;20480;-69
2022/08/26 20:23:59;;;;;;;10.33;9.43;;;19.60;99.90;;;;;;6139449;23;20527;-70
2022/08/26 20:26:27;;;;;;;10.20;9.40;;;19.60;99.90;;;;;;6136576;23;20464;-69
2022/08/26 20:28:54;;;;;;;10.20;9.30;;;19.60;99.90;;;;;;6147470;23;20521;-69
2022/08/26 20:31:22;;;;;;;11.17;10.17;;;19.60;99.90;;;;;;6129278;23;20462;-69
2022/08/26 20:33:50;;;;;;;9.73;8.93;;;19.60;99.90;;;;;;6133741;23;20944;-69
2022/08/26 20:36:20;;;;;;;10.73;9.83;;;19.70;99.90;;;;;;6124566;23;20535;-70
2022/08/26 20:38:47;;;;;;;10.00;9.10;;;19.70;99.90;;;;;;6122089;23;20948;-70
2022/08/26 20:41:15;;;;;;;10.63;9.73;;;19.70;99.90;;;;;;6141987;23;20437;-69
2022/08/26 20:43:42;;;;;;;10.40;9.50;;;19.80;99.90;;;;;;6142531;23;20462;-69
2022/08/26 20:46:09;;;;;;;9.73;8.93;;;19.80;99.90;;;;;;6149515;23;20452;-69
2022/08/26 20:48:38;;;;;;;11.10;10.20;;;19.90;99.90;;;;;;6148510;23;20436;-70
2022/08/26 20:51:06;;;;;;;10.30;9.30;;;19.90;99.90;;;;;;6134667;23;20473;-70
2022/08/26 20:53:38;;;;;;;9.70;8.80;;;19.90;99.90;;;;;;6131484;23;20564;-70
2022/08/26 20:56:08;;;;;;;9.70;8.90;;;19.90;99.90;;;;;;6142414;23;20541;-70
2022/08/26 20:58:38;;;;;;;10.17;9.17;;;19.90;99.90;;;;;;6147910;23;20864;-69
2022/08/26 21:01:05;;;;;;;8.97;8.10;;;19.90;99.90;;;;;;6132904;23;20540;-69
2022/08/26 21:03:33;;;;;;;9.37;8.57;;;19.90;99.90;;;;;;6144162;23;20482;-69
2022/08/26 21:06:00;;;;;;;8.70;8.07;;;19.90;99.90;;;;;;6147265;23;20482;-69
2022/08/26 21:08:27;;;;;;;10.43;9.53;;;19.90;99.90;;;;;;6138974;23;20530;-69
2022/08/26 21:10:55;;;;;;;9.30;8.57;;;19.90;99.90;;;;;;6135240;23;20481;-69
2022/08/26 21:13:22;;;;;;;9.70;8.73;;;20.00;99.90;;;;;;6137211;23;20524;-69
2022/08/26 21:15:49;;;;;;;9.20;8.50;;;20.00;99.90;;;;;;6147861;23;20461;-69
2022/08/26 21:18:16;;;;;;;8.83;8.03;;;20.00;99.90;;;;;;6146563;23;20421;-70
2022/08/26 21:20:43;;;;;;;8.47;7.70;;;20.00;99.90;;;;;;6135165;23;20812;-69
2022/08/26 21:23:11;;;;;;;9.03;8.33;;;20.10;99.90;;;;;;6147672;23;20568;-69
2022/08/26 21:25:38;;;;;;;8.90;8.10;;;20.10;99.90;;;;;;6147069;23;20455;-69
2022/08/26 21:28:06;;;;;;;9.37;8.47;;;20.10;99.90;;;;;;6150052;23;20776;-69
2022/08/26 21:30:37;;;;;;;9.30;8.50;;;20.10;99.90;;;;;;6133154;23;20945;-70
2022/08/26 21:33:04;;;;;;;9.37;8.67;;;20.10;99.90;;;;;;6128825;23;20501;-70
2022/08/26 21:35:30;;;;;;;9.33;8.53;;;20.10;99.90;;;;;;6150156;23;20427;-70
2022/08/26 21:37:58;;;;;;;9.33;8.60;;;20.10;99.90;;;;;;6141568;23;20461;-69
2022/08/26 21:40:25;;;;;;;10.27;9.47;;;20.20;99.90;;;;;;6149486;23;20430;-69
2022/08/26 21:42:52;;;;;;;9.43;8.63;;;20.10;99.90;;;;;;6128710;23;21004;-70
2022/08/26 21:45:20;;;;;;;9.50;8.60;;;20.20;99.90;;;;;;6136034;23;20925;-70
2022/08/26 21:47:47;;;;;;;9.63;8.80;;;20.20;99.90;;;;;;6120663;23;20942;-69
2022/08/26 21:50:14;;;;;;;10.20;9.30;;;20.20;99.90;;;;;;6136496;23;20453;-69
2022/08/26 21:52:41;;;;;;;9.60;8.87;;;20.20;99.90;;;;;;6136618;23;20982;-70
2022/08/26 21:55:09;;;;;;;9.83;9.03;;;20.20;99.90;;;;;;6149251;23;20784;-70
2022/08/26 21:57:36;;;;;;;10.33;9.30;;;20.20;99.90;;;;;;6123052;23;20488;-70
2022/08/26 22:00:07;;;;;;;10.30;9.53;;;20.10;99.90;;;;;;6149889;23;20433;-70
2022/08/26 22:02:36;;;;;;;11.17;10.27;;;20.10;99.90;;;;;;6140774;23;20955;-70
2022/08/26 22:05:04;;;;;;;10.10;9.30;;;20.10;99.90;;;;;;6138912;23;20438;-70
2022/08/26 22:07:31;;;;;;;10.70;9.70;;;20.10;99.90;;;;;;6145757;23;20436;-70
2022/08/26 22:09:58;;;;;;;11.03;10.10;;;20.10;99.90;;;;;;6143437;23;20469;-70
2022/08/26 22:12:25;;;;;;;11.40;10.37;;;20.10;99.90;;;;;;6149501;23;20487;-70
2022/08/26 22:14:55;;;;;;;11.00;10.10;;;20.10;99.90;;;;;;6146810;23;20454;-70
2022/08/26 22:17:22;;;;;;;11.53;10.43;;;20.10;99.90;;;;;;6147061;23;20429;-70
2022/08/26 22:19:50;;;;;;;11.63;10.63;;;20.10;99.90;;;;;;6141333;23;20784;-70
2022/08/26 22:22:17;;;;;;;11.67;10.67;;;20.10;99.90;;;;;;6132449;23;20641;-70
2022/08/26 22:24:44;;;;;;;12.17;11.07;;;20.10;99.90;;;;;;6140286;23;20532;-70
2022/08/26 22:27:12;;;;;;;12.20;11.20;;;20.20;99.90;;;;;;6127293;23;20471;-70
2022/08/26 22:29:40;;;;;;;12.77;11.70;;;20.20;99.90;;;;;;6148728;23;20944;-70
2022/08/26 22:32:10;;;;;;;12.57;11.47;;;20.20;99.90;;;;;;6145872;23;20551;-70
2022/08/26 22:34:37;;;;;;;11.90;10.90;;;20.20;99.90;;;;;;6127516;23;20467;-70
2022/08/26 22:37:05;;;;;;;12.70;11.70;;;20.20;99.90;;;;;;6121098;23;20423;-70
2022/08/26 22:39:33;;;;;;;11.80;10.77;;;20.20;99.90;;;;;;6145070;23;20452;-70
2022/08/26 22:42:02;;;;;;;12.37;11.17;;;20.20;99.90;;;;;;6147857;23;20870;-70
2022/08/26 22:44:31;;;;;;;13.47;12.37;;;20.20;99.90;;;;;;6144314;23;20512;-70
2022/08/26 22:46:58;;;;;;;13.27;12.17;;;20.00;99.90;;;;;;6143667;23;20469;-70
2022/08/26 22:49:25;;;;;;;12.93;11.87;;;20.30;99.90;;;;;;6140194;23;20483;-70
2022/08/26 22:51:55;;;;;;;12.67;11.57;;;20.30;99.90;;;;;;6145834;23;20459;-70
2022/08/26 22:54:24;;;;;;;13.60;12.40;;;20.30;99.90;;;;;;6131587;23;20439;-70
2022/08/26 22:56:51;;;;;;;14.57;13.27;;;20.30;99.90;;;;;;6145915;23;20460;-70
2022/08/26 22:59:18;;;;;;;14.93;13.50;;;20.30;99.90;;;;;;6139042;23;20970;-70
2022/08/26 23:01:46;;;;;;;13.57;12.47;;;20.30;99.90;;;;;;6143918;23;20792;-70
2022/08/26 23:04:13;;;;;;;15.27;13.97;;;20.30;99.90;;;;;;6148694;23;20445;-70
2022/08/26 23:06:42;;;;;;;16.00;14.67;;;20.30;99.90;;;;;;6127208;23;20520;-70
2022/08/26 23:09:10;;;;;;;16.03;14.57;;;20.30;99.90;;;;;;6137221;23;20481;-70
2022/08/26 23:11:42;;;;;;;16.47;15.17;;;20.30;99.90;;;;;;6144228;23;20974;-69
2022/08/26 23:14:09;;;;;;;17.00;15.60;;;20.20;99.90;;;;;;6131413;23;20457;-70
2022/08/26 23:16:40;;;;;;;17.93;16.53;;;20.20;99.90;;;;;;6127288;23;20472;-71
2022/08/26 23:19:08;;;;;;;19.37;17.60;;;20.10;99.90;;;;;;6147801;23;20796;-71
2022/08/26 23:21:35;;;;;;;21.00;19.17;;;20.10;99.90;;;;;;6149109;23;20500;-72
2022/08/26 23:24:03;;;;;;;21.20;19.20;;;20.00;99.90;;;;;;6131890;23;20453;-71
2022/08/26 23:26:30;;;;;;;20.40;18.60;;;20.00;99.90;;;;;;6149545;23;20417;-69
2022/08/26 23:28:59;;;;;;;23.30;21.27;;;19.90;99.90;;;;;;6145446;23;20437;-69
2022/08/26 23:31:26;;;;;;;23.70;21.70;;;19.90;99.90;;;;;;6147043;23;20511;-69
2022/08/26 23:36:41;;;;;;;27.80;25.20;;;19.90;99.90;;;;;;6130281;23;20423;-69
2022/08/26 23:39:08;;;;;;;27.13;24.80;;;19.90;99.90;;;;;;6137343;23;20957;-69
2022/08/26 23:41:35;;;;;;;25.73;23.43;;;19.90;99.90;;;;;;6148577;23;20469;-69
2022/08/26 23:44:04;;;;;;;26.23;23.93;;;19.80;99.90;;;;;;6128616;23;20475;-69
2022/08/26 23:46:31;;;;;;;28.87;26.40;;;19.80;99.90;;;;;;6142446;23;20436;-69
2022/08/26 23:48:59;;;;;;;28.97;26.40;;;19.80;99.90;;;;;;6136104;23;20457;-69
2022/08/26 23:54:11;;;;;;;31.07;28.30;;;19.80;99.90;;;;;;6129774;23;20443;-69
2022/08/26 23:56:39;;;;;;;32.80;30.03;;;19.90;99.90;;;;;;6148935;23;21008;-69
2022/08/26 23:59:08;;;;;;;33.73;30.83;;;19.80;99.90;;;;;;6133089;23;20441;-69
